Terminal Aerodrome Forecast
Issued by NWS

Home | Current Version | Previous Version | Graphics & Text | Print | Product List | Glossary On
Versions: 1 2 3 4 5 6 7 8 9 10 11 12 13 14 15 16 17 18 19 20
000
FTUS43 KICT 152327
TAFRSL
TAF
KRSL 152327Z 1600/1624 34018G27KT P6SM OVC028
     FM161000 34015KT P6SM SCT030 BKN035
     FM161500 33010KT P6SM SCT250=

USA.gov is the U.S. government's official web portal to all federal, state and local government web resources and services.